KLRF/LRF METAR and TAF weather

Enter ICAO airport designator
Station Type Date Time Source
KLRF METAR 2020/04/05 15:56 UTC NOAA

KLRF 051556Z AUTO 10004KT 10SM CLR 17/12 A3011 RMK AO2 SLP198 T01700115 $


Station Type Date Time Source
KLRF Decoded METAR 2020/04/05 15:56 UTC NOAA

Little Rock Air Force Base, AR, United States (KLRF) 34-55N 092-09W
Apr 05, 2020 - 11:56 AM EDT / 2020.04.05 1556 UTC
Wind: from the E (100 degrees) at 5 MPH (4 KT):0
Visibility: 10 mile(s):0
Sky conditions: clear
Temperature: 62.6 F (17.0 C)
Dew Point: 52.7 F (11.5 C)
Relative Humidity: 70%
Pressure (altimeter): 30.11 in. Hg (1019 hPa)
ob: KLRF 051556Z AUTO 10004KT 10SM CLR 17/12 A3011 RMK AO2 SLP198 T01700115
cycle: 16

Station Type Date Time Source
KLRF TAF 2020/04/05 15:03 UTC NOAA

TAF TAF KLRF 051500Z 0515/0621 03006KT 9999 FEW100 QNH3010INS
BECMG 0520/0521 VRB06KT 9999 BKN030 QNH3005INS
BECMG 0602/0603 04006KT 9999 SCT030 QNH3004INS
BECMG 0620/0621 22012KT 9999 SCT030 QNH2999INS TX22/0604Z TN13/0515Z

Example: see airport list